createdAt,value
2023-05-19T00:01:23.008Z,55.64
2023-05-19T00:04:24.787Z,55.68
2023-05-19T00:07:31.002Z,55.60
2023-05-19T00:10:33.118Z,55.71
2023-05-19T00:13:35.255Z,55.66
2023-05-19T00:16:42.152Z,55.56
2023-05-19T00:19:45.023Z,55.37
2023-05-19T00:22:46.692Z,55.90
2023-05-19T00:25:48.215Z,55.61
2023-05-19T00:28:50.304Z,55.83
2023-05-19T00:31:51.910Z,55.74
2023-05-19T00:34:53.571Z,56.02
2023-05-19T00:37:55.485Z,55.88
2023-05-19T00:40:57.298Z,55.93
2023-05-19T00:43:58.806Z,55.82
2023-05-19T00:47:00.574Z,55.77
2023-05-19T00:50:02.282Z,55.66
2023-05-19T00:53:04.139Z,55.76
2023-05-19T00:56:05.984Z,55.75
2023-05-19T00:59:08.602Z,55.75
2023-05-19T01:02:10.333Z,55.85
2023-05-19T01:05:13.329Z,55.85
2023-05-19T01:08:14.892Z,55.79
2023-05-19T01:11:16.439Z,55.95
2023-05-19T01:14:19.601Z,55.95
2023-05-19T01:17:30.491Z,55.97
2023-05-19T01:20:38.541Z,56.25
2023-05-19T01:24:18.197Z,56.02
2023-05-19T01:27:57.044Z,56.17
2023-05-19T01:31:00.728Z,56.17
2023-05-19T01:34:04.714Z,56.34
2023-05-19T01:37:07.811Z,56.11
2023-05-19T01:40:10.053Z,56.27
2023-05-19T01:43:15.016Z,56.29
2023-05-19T01:46:17.539Z,56.21
2023-05-19T01:49:19.164Z,56.29
2023-05-19T01:52:20.771Z,56.25
2023-05-19T01:55:24.027Z,56.31
2023-05-19T01:58:31.592Z,56.56
2023-05-19T02:01:53.695Z,56.29
2023-05-19T02:05:00.307Z,56.56
2023-05-19T02:08:35.570Z,56.50
2023-05-19T02:11:42.021Z,56.50
2023-05-19T02:15:18.050Z,56.48
2023-05-19T02:18:20.406Z,56.69
2023-05-19T02:21:25.773Z,56.57
2023-05-19T02:24:27.337Z,56.51
2023-05-19T02:27:29.857Z,56.94
2023-05-19T02:30:32.005Z,56.31
2023-05-19T02:33:36.194Z,56.52
2023-05-19T02:36:40.945Z,56.55
2023-05-19T02:39:44.249Z,56.50
2023-05-19T02:42:46.092Z,56.71
2023-05-19T02:45:47.664Z,56.75
2023-05-19T02:48:49.538Z,56.58
2023-05-19T02:51:51.081Z,56.26
2023-05-19T02:54:52.622Z,56.39
2023-05-19T02:57:54.205Z,56.47
2023-05-19T03:00:56.106Z,56.66
2023-05-19T03:03:57.911Z,56.47
2023-05-19T03:06:59.522Z,56.61
2023-05-19T03:10:03.822Z,56.55
2023-05-19T03:13:05.603Z,56.48
2023-05-19T03:16:08.097Z,56.54
2023-05-19T03:19:10.001Z,56.59
2023-05-19T03:22:11.824Z,56.49
2023-05-19T03:25:13.773Z,56.69
2023-05-19T03:28:15.941Z,56.25
2023-05-19T03:31:17.605Z,56.58
2023-05-19T03:34:19.220Z,56.61
2023-05-19T03:37:20.941Z,56.94
2023-05-19T03:40:22.506Z,56.85
2023-05-19T03:43:26.337Z,57.07
2023-05-19T03:46:32.414Z,56.86
2023-05-19T03:49:33.981Z,56.88
2023-05-19T03:52:46.587Z,57.00
2023-05-19T03:55:59.362Z,56.86
2023-05-19T03:59:00.938Z,56.96
2023-05-19T04:02:03.800Z,57.21
2023-05-19T04:05:05.715Z,57.08
2023-05-19T04:08:07.312Z,57.24
2023-05-19T04:11:09.023Z,56.88
2023-05-19T04:14:10.751Z,56.95
2023-05-19T04:17:12.522Z,56.85
2023-05-19T04:20:14.104Z,56.71
2023-05-19T04:23:15.667Z,56.80
2023-05-19T04:26:18.034Z,56.56
2023-05-19T04:29:19.627Z,56.83
2023-05-19T04:32:22.570Z,57.16
2023-05-19T04:35:25.369Z,56.91
2023-05-19T04:38:29.881Z,56.80
2023-05-19T04:41:31.527Z,56.80
2023-05-19T04:44:33.671Z,56.89
2023-05-19T04:47:38.413Z,56.81
2023-05-19T04:50:42.130Z,57.06
2023-05-19T04:53:43.882Z,56.52
2023-05-19T04:56:47.205Z,56.60
2023-05-19T04:59:49.671Z,56.91
2023-05-19T05:02:51.340Z,56.74
2023-05-19T05:05:56.663Z,56.59
2023-05-19T05:08:59.844Z,56.79
2023-05-19T05:12:02.446Z,56.79
2023-05-19T05:15:06.903Z,56.71
2023-05-19T05:18:08.908Z,56.70
2023-05-19T05:21:10.933Z,56.57
2023-05-19T05:24:13.080Z,56.65
2023-05-19T05:27:19.022Z,56.75
2023-05-19T05:30:20.636Z,56.70
2023-05-19T05:33:24.647Z,56.82
2023-05-19T05:36:26.446Z,56.88
2023-05-19T05:39:28.699Z,57.02
2023-05-19T05:42:30.775Z,56.91
2023-05-19T05:45:32.594Z,57.19
2023-05-19T05:48:36.341Z,56.73
2023-05-19T05:51:40.656Z,56.79
2023-05-19T05:54:43.826Z,56.90
2023-05-19T05:57:48.669Z,56.89
2023-05-19T06:00:51.373Z,56.89
2023-05-19T06:03:52.992Z,57.09
2023-05-19T06:07:01.067Z,57.02
2023-05-19T06:10:07.285Z,56.84
2023-05-19T06:13:09.319Z,57.20
2023-05-19T06:16:12.843Z,57.04
2023-05-19T06:19:20.051Z,56.92
2023-05-19T06:22:21.713Z,56.98
2023-05-19T06:25:24.650Z,56.91
2023-05-19T06:28:26.512Z,56.82
2023-05-19T06:31:28.883Z,56.77
2023-05-19T06:34:33.418Z,56.63
2023-05-19T06:37:34.928Z,56.65
2023-05-19T06:40:37.695Z,56.48
2023-05-19T06:43:39.226Z,56.70
2023-05-19T06:46:40.906Z,56.75
2023-05-19T06:49:43.401Z,56.74
2023-05-19T06:52:46.919Z,56.95
2023-05-19T06:55:59.557Z,56.56
2023-05-19T06:59:04.034Z,56.60
2023-05-19T07:02:10.019Z,56.72
2023-05-19T07:05:11.797Z,56.78
2023-05-19T07:08:13.462Z,56.88
2023-05-19T07:11:15.433Z,56.74
2023-05-19T07:14:17.972Z,56.51
2023-05-19T07:17:19.746Z,56.52
2023-05-19T07:20:21.289Z,56.49
2023-05-19T07:23:23.093Z,56.29
2023-05-19T07:26:24.704Z,56.65
2023-05-19T07:29:26.398Z,56.51
2023-05-19T07:32:28.027Z,56.56
2023-05-19T07:35:29.620Z,56.42
2023-05-19T07:38:34.349Z,56.46
2023-05-19T07:41:36.541Z,56.54
2023-05-19T07:44:38.122Z,56.38
2023-05-19T07:47:39.633Z,56.65
2023-05-19T07:50:41.330Z,56.54
2023-05-19T07:53:42.869Z,56.55
2023-05-19T07:56:44.428Z,56.20
2023-05-19T07:59:46.021Z,56.44
2023-05-19T08:02:47.639Z,56.34
2023-05-19T08:05:49.198Z,56.36
2023-05-19T08:08:51.393Z,56.26
2023-05-19T08:11:52.927Z,56.32
2023-05-19T08:14:54.550Z,56.04
2023-05-19T08:17:56.119Z,56.19
2023-05-19T08:20:57.770Z,56.08
2023-05-19T08:23:59.278Z,56.28
2023-05-19T08:27:00.876Z,56.12
2023-05-19T08:30:02.524Z,56.16
2023-05-19T08:33:04.286Z,56.45
2023-05-19T08:36:06.594Z,56.17
2023-05-19T08:39:08.179Z,55.95
2023-05-19T08:42:10.022Z,56.30
2023-05-19T08:45:12.589Z,56.21
2023-05-19T08:48:16.745Z,56.31
2023-05-19T08:51:25.195Z,56.38
2023-05-19T08:54:33.693Z,56.36
2023-05-19T08:57:36.849Z,56.37
2023-05-19T09:00:38.621Z,56.39
2023-05-19T09:03:41.416Z,56.46
2023-05-19T09:06:45.092Z,56.33
2023-05-19T09:09:47.718Z,56.31
2023-05-19T09:12:49.752Z,56.30
2023-05-19T09:15:53.165Z,56.27
2023-05-19T09:18:56.764Z,56.11
2023-05-19T09:22:04.778Z,55.99
2023-05-19T09:25:06.731Z,55.83
2023-05-19T09:28:09.797Z,55.69
2023-05-19T09:31:11.641Z,55.56
2023-05-19T09:34:13.470Z,55.64
2023-05-19T09:37:14.984Z,55.47
2023-05-19T09:40:16.493Z,55.42
2023-05-19T09:43:18.163Z,55.21
2023-05-19T09:46:28.362Z,55.06
2023-05-19T09:49:30.788Z,54.97
2023-05-19T09:52:35.788Z,54.63
2023-05-19T09:55:37.439Z,54.71
2023-05-19T09:58:42.503Z,54.55
2023-05-19T10:01:46.547Z,54.48
2023-05-19T10:04:48.585Z,54.46
2023-05-19T10:07:54.582Z,54.16
2023-05-19T10:10:56.889Z,54.08
2023-05-19T10:13:59.136Z,54.00
2023-05-19T10:17:00.925Z,53.90
2023-05-19T10:20:03.718Z,53.79
2023-05-19T10:23:05.412Z,53.83
2023-05-19T10:26:08.463Z,53.60
2023-05-19T10:29:11.263Z,53.49
2023-05-19T10:32:20.954Z,53.48
2023-05-19T10:35:35.011Z,53.38
2023-05-19T10:39:01.028Z,53.39
2023-05-19T10:42:41.002Z,53.33
2023-05-19T10:45:51.641Z,53.27
2023-05-19T10:48:54.073Z,53.30
2023-05-19T10:51:58.538Z,53.22
2023-05-19T10:55:00.933Z,53.17
2023-05-19T10:58:02.868Z,53.13
2023-05-19T11:01:08.639Z,53.08
2023-05-19T11:04:12.291Z,53.06
2023-05-19T11:07:21.688Z,53.05
2023-05-19T11:10:24.589Z,53.08
2023-05-19T11:16:32.140Z,53.09
2023-05-19T11:19:37.142Z,53.03
2023-05-19T11:22:39.929Z,53.15
2023-05-19T11:25:46.784Z,52.91
2023-05-19T11:28:49.052Z,53.08
2023-05-19T11:31:51.884Z,52.85
2023-05-19T11:34:55.681Z,52.98
2023-05-19T11:37:57.589Z,52.96
2023-05-19T11:41:00.683Z,53.09
2023-05-19T11:44:02.228Z,53.04
2023-05-19T11:47:04.943Z,53.07
2023-05-19T11:50:07.090Z,53.05
2023-05-19T11:53:12.358Z,52.93
2023-05-19T11:56:15.144Z,53.01
2023-05-19T11:59:16.680Z,53.07
2023-05-19T12:02:25.876Z,53.00
2023-05-19T12:05:28.840Z,53.09
2023-05-19T12:08:30.467Z,52.97
2023-05-19T12:11:32.054Z,52.85
2023-05-19T12:14:34.453Z,52.89
2023-05-19T12:17:36.443Z,52.62
2023-05-19T12:20:38.163Z,52.70
2023-05-19T12:23:41.483Z,52.63
2023-05-19T12:26:43.191Z,53.26
2023-05-19T12:29:51.679Z,52.62
2023-05-19T12:32:54.180Z,52.57
2023-05-19T12:35:56.286Z,52.70
2023-05-19T12:38:58.058Z,52.62
2023-05-19T12:42:10.656Z,52.52
2023-05-19T12:45:12.396Z,52.57
2023-05-19T12:48:18.084Z,52.64
2023-05-19T12:51:20.390Z,52.75
2023-05-19T12:54:22.282Z,52.96
2023-05-19T12:57:26.107Z,52.97
2023-05-19T13:00:30.948Z,52.85
2023-05-19T13:03:32.923Z,53.06
2023-05-19T13:06:34.543Z,53.17
2023-05-19T13:09:36.463Z,53.18
2023-05-19T13:12:37.994Z,53.10
2023-05-19T13:15:42.017Z,53.05
2023-05-19T13:18:43.910Z,53.12
2023-05-19T13:21:47.477Z,53.21
2023-05-19T13:24:49.036Z,52.90
2023-05-19T13:27:51.012Z,53.07
2023-05-19T13:30:52.749Z,53.33
2023-05-19T13:33:54.454Z,53.14
2023-05-19T13:36:56.641Z,53.27
2023-05-19T13:40:00.989Z,52.98
2023-05-19T13:43:03.767Z,52.96
2023-05-19T13:46:06.050Z,52.96
2023-05-19T13:49:07.652Z,53.54
2023-05-19T13:52:09.184Z,53.04
2023-05-19T13:55:10.898Z,53.02
2023-05-19T13:58:14.291Z,53.01
2023-05-19T14:01:15.878Z,53.23
2023-05-19T14:04:18.454Z,52.84
2023-05-19T14:07:20.105Z,53.12
2023-05-19T14:10:21.732Z,53.13
2023-05-19T14:16:28.651Z,53.32
2023-05-19T14:19:30.547Z,53.38
2023-05-19T14:22:32.267Z,53.14
2023-05-19T14:25:33.841Z,53.42
2023-05-19T14:28:35.389Z,53.50
2023-05-19T14:31:37.010Z,53.97
2023-05-19T14:34:38.567Z,53.92
2023-05-19T14:37:40.098Z,54.10
2023-05-19T14:40:41.753Z,54.20
2023-05-19T14:43:43.317Z,54.33
2023-05-19T14:46:44.964Z,54.47
2023-05-19T14:49:46.767Z,54.83
2023-05-19T14:52:48.294Z,54.84
2023-05-19T14:55:49.929Z,54.93
2023-05-19T14:58:51.615Z,55.25
2023-05-19T15:01:53.236Z,55.19
2023-05-19T15:04:54.757Z,55.05
2023-05-19T15:07:56.448Z,55.10
2023-05-19T15:10:58.033Z,55.36
2023-05-19T15:13:59.734Z,54.63
2023-05-19T15:17:01.413Z,54.33
2023-05-19T15:20:03.132Z,54.33
2023-05-19T15:23:04.700Z,54.02
2023-05-19T15:26:06.792Z,53.73
2023-05-19T15:29:08.309Z,53.62
2023-05-19T15:32:09.938Z,53.76
2023-05-19T15:35:11.514Z,53.47
2023-05-19T15:38:13.082Z,53.77
2023-05-19T15:41:14.602Z,53.66
2023-05-19T15:44:16.190Z,53.56
2023-05-19T15:47:17.732Z,53.65
2023-05-19T15:50:19.330Z,53.86
2023-05-19T15:53:20.837Z,53.85
2023-05-19T15:56:22.490Z,53.39
2023-05-19T15:59:24.131Z,53.62
2023-05-19T16:02:25.706Z,53.67
2023-05-19T16:05:27.397Z,53.42
2023-05-19T16:08:29.012Z,51.98
2023-05-19T16:11:30.623Z,49.68
2023-05-19T16:14:36.265Z,48.07
2023-05-19T16:17:37.867Z,47.31
2023-05-19T16:20:39.394Z,47.16
2023-05-19T16:23:40.895Z,47.08
2023-05-19T16:26:42.404Z,46.95
2023-05-19T16:29:43.984Z,46.74
2023-05-19T16:32:45.666Z,46.21
2023-05-19T16:35:47.285Z,46.11
2023-05-19T16:38:48.863Z,45.78
2023-05-19T16:41:50.530Z,45.88
2023-05-19T16:44:52.136Z,46.08
2023-05-19T16:47:53.769Z,45.99
2023-05-19T16:50:55.457Z,45.93
2023-05-19T16:53:56.996Z,45.93
2023-05-19T16:56:58.543Z,46.25
2023-05-19T17:00:00.069Z,46.24
2023-05-19T17:03:01.733Z,46.26
2023-05-19T17:06:03.538Z,46.71
2023-05-19T17:09:05.098Z,46.92
2023-05-19T17:12:06.983Z,47.18
2023-05-19T17:15:08.934Z,47.43
2023-05-19T17:18:12.427Z,47.41
2023-05-19T17:21:14.081Z,47.45
2023-05-19T17:24:15.612Z,47.60
2023-05-19T17:27:17.131Z,47.49
2023-05-19T17:30:18.771Z,47.36
2023-05-19T17:33:20.874Z,47.49
2023-05-19T17:36:22.618Z,47.62
2023-05-19T17:39:24.825Z,47.67
2023-05-19T17:42:26.495Z,47.86
2023-05-19T17:45:31.162Z,47.63
2023-05-19T17:48:33.144Z,47.79
2023-05-19T17:51:34.911Z,47.83
2023-05-19T17:54:36.770Z,47.96
2023-05-19T17:57:42.611Z,48.02
2023-05-19T18:00:44.424Z,48.07
2023-05-19T18:03:49.494Z,48.25
2023-05-19T18:06:52.010Z,48.43
2023-05-19T18:09:55.828Z,48.35
2023-05-19T18:12:57.316Z,48.61
2023-05-19T18:15:59.711Z,48.62
2023-05-19T18:19:01.615Z,48.66
2023-05-19T18:22:03.518Z,48.80
2023-05-19T18:25:05.721Z,48.83
2023-05-19T18:28:07.674Z,48.98
2023-05-19T18:31:10.960Z,48.94
2023-05-19T18:34:13.864Z,49.33
2023-05-19T18:37:15.505Z,49.42
2023-05-19T18:40:17.126Z,49.51
2023-05-19T18:43:19.102Z,49.69
2023-05-19T18:46:20.939Z,49.79
2023-05-19T18:49:24.693Z,49.92
2023-05-19T18:52:28.233Z,50.12
2023-05-19T18:55:29.966Z,50.14
2023-05-19T18:58:31.861Z,50.42
2023-05-19T19:01:33.455Z,50.56
2023-05-19T19:04:35.081Z,50.63
2023-05-19T19:07:41.134Z,50.77
2023-05-19T19:10:45.098Z,50.77
2023-05-19T19:13:46.949Z,50.84
2023-05-19T19:16:48.695Z,50.99
2023-05-19T19:19:50.369Z,51.24
2023-05-19T19:22:52.088Z,51.12
2023-05-19T19:25:53.694Z,51.24
2023-05-19T19:28:56.105Z,51.40
2023-05-19T19:31:57.806Z,51.73
2023-05-19T19:34:59.437Z,51.97
2023-05-19T19:38:01.231Z,52.48
2023-05-19T19:41:02.952Z,52.55
2023-05-19T19:44:04.691Z,52.95
2023-05-19T19:47:06.441Z,53.09
2023-05-19T19:50:08.590Z,53.57
2023-05-19T19:53:10.278Z,53.59
2023-05-19T19:56:11.830Z,53.75
2023-05-19T19:59:13.398Z,54.03
2023-05-19T20:02:15.033Z,54.05
2023-05-19T20:05:16.766Z,54.23
2023-05-19T20:08:19.994Z,54.66
2023-05-19T20:11:23.650Z,55.01
2023-05-19T20:14:25.315Z,55.11
2023-05-19T20:17:26.914Z,54.70
2023-05-19T20:20:28.479Z,55.17
2023-05-19T20:23:29.991Z,55.60
2023-05-19T20:26:31.849Z,55.38
2023-05-19T20:29:33.460Z,55.27
2023-05-19T20:32:35.158Z,55.23
2023-05-19T20:35:36.725Z,55.35
2023-05-19T20:38:38.254Z,55.36
2023-05-19T20:41:39.802Z,55.24
2023-05-19T20:44:41.603Z,55.46
2023-05-19T20:47:43.192Z,55.73
2023-05-19T20:50:44.848Z,55.49
2023-05-19T20:53:46.329Z,55.66
2023-05-19T20:56:47.873Z,55.54
2023-05-19T20:59:49.400Z,54.81
2023-05-19T21:02:50.988Z,55.48
2023-05-19T21:05:53.371Z,55.33
2023-05-19T21:08:54.854Z,55.41
2023-05-19T21:11:56.384Z,55.36
2023-05-19T21:14:57.951Z,54.78
2023-05-19T21:17:59.534Z,55.50
2023-05-19T21:21:04.313Z,55.28
2023-05-19T21:24:06.149Z,55.33
2023-05-19T21:27:07.631Z,55.20
2023-05-19T21:30:09.651Z,55.33
2023-05-19T21:33:11.471Z,55.37
2023-05-19T21:36:13.103Z,55.08
2023-05-19T21:39:14.652Z,55.20
2023-05-19T21:42:16.166Z,55.32
2023-05-19T21:45:17.732Z,55.22
2023-05-19T21:48:19.616Z,55.34
2023-05-19T21:51:21.341Z,55.48
2023-05-19T21:54:22.840Z,55.31
2023-05-19T21:57:24.327Z,55.37
2023-05-19T22:00:25.884Z,54.95
2023-05-19T22:03:27.680Z,55.34
2023-05-19T22:06:29.714Z,55.47
2023-05-19T22:09:31.300Z,55.14
2023-05-19T22:12:33.066Z,54.99
2023-05-19T22:15:34.766Z,55.16
2023-05-19T22:18:36.308Z,55.06
2023-05-19T22:21:37.803Z,55.43
2023-05-19T22:24:39.343Z,55.30
2023-05-19T22:27:40.843Z,55.08
2023-05-19T22:30:42.703Z,55.14
2023-05-19T22:33:45.468Z,55.18
2023-05-19T22:36:46.999Z,55.09
2023-05-19T22:39:48.490Z,55.30
2023-05-19T22:42:50.014Z,55.58
2023-05-19T22:45:51.533Z,55.51
2023-05-19T22:48:53.099Z,55.59
2023-05-19T22:51:54.597Z,55.57
2023-05-19T22:54:56.081Z,55.84
2023-05-19T22:57:57.670Z,55.79
2023-05-19T23:00:59.178Z,55.65
2023-05-19T23:04:00.830Z,55.72
2023-05-19T23:07:02.439Z,55.80
2023-05-19T23:10:05.955Z,55.98
2023-05-19T23:13:09.414Z,56.04
2023-05-19T23:16:10.892Z,55.95
2023-05-19T23:19:12.576Z,55.67
2023-05-19T23:22:14.087Z,55.40
2023-05-19T23:25:15.738Z,55.74
2023-05-19T23:28:17.292Z,55.96
2023-05-19T23:31:18.831Z,56.08
2023-05-19T23:34:20.519Z,55.98
2023-05-19T23:37:22.017Z,55.81
2023-05-19T23:40:23.572Z,55.84
2023-05-19T23:43:25.041Z,55.58
2023-05-19T23:46:26.695Z,56.07
2023-05-19T23:49:28.250Z,55.84
2023-05-19T23:52:29.914Z,55.78
2023-05-19T23:55:31.518Z,55.61
2023-05-19T23:58:33.121Z,55.64
